sensor_id;sensor_type;location;lat;lon;timestamp;P1;durP1;ratioP1;P2;durP2;ratioP2
53273;SDS011;39163;52.696;6.758;2023-07-09T00:00:47;11.50;;;7.75;;
53273;SDS011;39163;52.696;6.758;2023-07-09T00:03:14;13.98;;;7.72;;
53273;SDS011;39163;52.696;6.758;2023-07-09T00:05:40;15.35;;;9.70;;
53273;SDS011;39163;52.696;6.758;2023-07-09T00:08:26;19.92;;;9.13;;
53273;SDS011;39163;52.696;6.758;2023-07-09T00:10:55;21.88;;;9.32;;
53273;SDS011;39163;52.696;6.758;2023-07-09T00:13:23;15.02;;;8.65;;
53273;SDS011;39163;52.696;6.758;2023-07-09T00:15:50;16.42;;;9.32;;
53273;SDS011;39163;52.696;6.758;2023-07-09T00:18:17;13.55;;;7.68;;
53273;SDS011;39163;52.696;6.758;2023-07-09T00:20:42;16.15;;;6.72;;
53273;SDS011;39163;52.696;6.758;2023-07-09T00:23:09;23.48;;;7.93;;
53273;SDS011;39163;52.696;6.758;2023-07-09T00:25:41;15.85;;;6.65;;
53273;SDS011;39163;52.696;6.758;2023-07-09T00:28:13;7.05;;;5.35;;
53273;SDS011;39163;52.696;6.758;2023-07-09T00:30:39;10.40;;;5.63;;
53273;SDS011;39163;52.696;6.758;2023-07-09T00:33:06;11.60;;;5.65;;
53273;SDS011;39163;52.696;6.758;2023-07-09T00:35:37;7.80;;;5.70;;
53273;SDS011;39163;52.696;6.758;2023-07-09T00:38:07;15.93;;;6.00;;
53273;SDS011;39163;52.696;6.758;2023-07-09T00:40:45;9.35;;;5.15;;
53273;SDS011;39163;52.696;6.758;2023-07-09T00:43:33;8.82;;;4.97;;
53273;SDS011;39163;52.696;6.758;2023-07-09T00:48:56;8.88;;;5.47;;
53273;SDS011;39163;52.696;6.758;2023-07-09T00:51:24;14.15;;;6.32;;
53273;SDS011;39163;52.696;6.758;2023-07-09T00:53:53;9.77;;;5.53;;
53273;SDS011;39163;52.696;6.758;2023-07-09T00:56:32;10.40;;;6.15;;
53273;SDS011;39163;52.696;6.758;2023-07-09T00:59:04;12.20;;;6.63;;
53273;SDS011;39163;52.696;6.758;2023-07-09T01:01:33;7.80;;;5.43;;
53273;SDS011;39163;52.696;6.758;2023-07-09T01:04:00;12.52;;;6.25;;
53273;SDS011;39163;52.696;6.758;2023-07-09T01:09:24;13.27;;;6.80;;
53273;SDS011;39163;52.696;6.758;2023-07-09T01:11:50;8.45;;;5.97;;
53273;SDS011;39163;52.696;6.758;2023-07-09T01:14:17;7.32;;;5.85;;
53273;SDS011;39163;52.696;6.758;2023-07-09T01:16:50;8.35;;;5.38;;
53273;SDS011;39163;52.696;6.758;2023-07-09T01:19:26;8.82;;;5.90;;
53273;SDS011;39163;52.696;6.758;2023-07-09T01:22:05;7.82;;;5.63;;
53273;SDS011;39163;52.696;6.758;2023-07-09T01:27:22;10.00;;;6.30;;
53273;SDS011;39163;52.696;6.758;2023-07-09T01:29:51;11.75;;;6.20;;
53273;SDS011;39163;52.696;6.758;2023-07-09T01:32:20;9.98;;;5.22;;
53273;SDS011;39163;52.696;6.758;2023-07-09T01:34:47;12.35;;;6.53;;
53273;SDS011;39163;52.696;6.758;2023-07-09T01:37:19;9.50;;;6.07;;
53273;SDS011;39163;52.696;6.758;2023-07-09T01:39:49;10.82;;;6.72;;
53273;SDS011;39163;52.696;6.758;2023-07-09T01:42:16;9.18;;;6.18;;
53273;SDS011;39163;52.696;6.758;2023-07-09T01:44:43;9.68;;;6.18;;
53273;SDS011;39163;52.696;6.758;2023-07-09T01:47:11;9.48;;;5.35;;
53273;SDS011;39163;52.696;6.758;2023-07-09T01:49:37;10.85;;;5.68;;
53273;SDS011;39163;52.696;6.758;2023-07-09T01:52:05;9.05;;;6.03;;
53273;SDS011;39163;52.696;6.758;2023-07-09T01:54:34;10.55;;;6.10;;
53273;SDS011;39163;52.696;6.758;2023-07-09T02:00:11;8.27;;;5.65;;
53273;SDS011;39163;52.696;6.758;2023-07-09T02:02:42;10.50;;;6.28;;
53273;SDS011;39163;52.696;6.758;2023-07-09T02:05:09;8.73;;;5.47;;
53273;SDS011;39163;52.696;6.758;2023-07-09T02:07:36;7.75;;;5.90;;
53273;SDS011;39163;52.696;6.758;2023-07-09T02:10:14;11.98;;;6.50;;
53273;SDS011;39163;52.696;6.758;2023-07-09T02:12:41;9.50;;;5.93;;
53273;SDS011;39163;52.696;6.758;2023-07-09T02:15:07;9.10;;;6.32;;
53273;SDS011;39163;52.696;6.758;2023-07-09T02:17:33;7.95;;;6.25;;
53273;SDS011;39163;52.696;6.758;2023-07-09T02:20:03;11.45;;;6.43;;
53273;SDS011;39163;52.696;6.758;2023-07-09T02:22:30;8.35;;;6.25;;
53273;SDS011;39163;52.696;6.758;2023-07-09T02:24:56;8.40;;;6.50;;
53273;SDS011;39163;52.696;6.758;2023-07-09T02:27:22;11.48;;;7.32;;
53273;SDS011;39163;52.696;6.758;2023-07-09T02:29:47;10.45;;;6.85;;
53273;SDS011;39163;52.696;6.758;2023-07-09T02:32:16;8.27;;;6.55;;
53273;SDS011;39163;52.696;6.758;2023-07-09T02:35:05;10.25;;;6.90;;
53273;SDS011;39163;52.696;6.758;2023-07-09T02:37:32;10.05;;;6.57;;
53273;SDS011;39163;52.696;6.758;2023-07-09T02:39:58;8.13;;;6.38;;
53273;SDS011;39163;52.696;6.758;2023-07-09T02:42:24;8.68;;;6.03;;
53273;SDS011;39163;52.696;6.758;2023-07-09T02:45:08;9.52;;;6.80;;
53273;SDS011;39163;52.696;6.758;2023-07-09T02:47:34;9.23;;;6.72;;
53273;SDS011;39163;52.696;6.758;2023-07-09T02:50:00;9.90;;;6.63;;
53273;SDS011;39163;52.696;6.758;2023-07-09T02:52:26;10.73;;;8.43;;
53273;SDS011;39163;52.696;6.758;2023-07-09T02:54:52;10.35;;;6.35;;
53273;SDS011;39163;52.696;6.758;2023-07-09T02:57:18;8.25;;;6.28;;
53273;SDS011;39163;52.696;6.758;2023-07-09T02:59:43;8.77;;;6.68;;
53273;SDS011;39163;52.696;6.758;2023-07-09T03:02:15;10.95;;;6.88;;
53273;SDS011;39163;52.696;6.758;2023-07-09T03:04:41;11.35;;;7.32;;
53273;SDS011;39163;52.696;6.758;2023-07-09T03:07:12;11.25;;;7.68;;
53273;SDS011;39163;52.696;6.758;2023-07-09T03:09:39;12.07;;;6.68;;
53273;SDS011;39163;52.696;6.758;2023-07-09T03:12:05;9.02;;;7.30;;
53273;SDS011;39163;52.696;6.758;2023-07-09T03:14:31;11.32;;;7.75;;
53273;SDS011;39163;52.696;6.758;2023-07-09T03:17:00;10.15;;;6.38;;
53273;SDS011;39163;52.696;6.758;2023-07-09T03:19:26;11.13;;;7.88;;
53273;SDS011;39163;52.696;6.758;2023-07-09T03:21:53;9.20;;;7.05;;
53273;SDS011;39163;52.696;6.758;2023-07-09T03:24:19;9.15;;;7.10;;
53273;SDS011;39163;52.696;6.758;2023-07-09T03:26:45;12.10;;;7.13;;
53273;SDS011;39163;52.696;6.758;2023-07-09T03:29:11;10.68;;;7.10;;
53273;SDS011;39163;52.696;6.758;2023-07-09T03:31:37;12.38;;;7.20;;
53273;SDS011;39163;52.696;6.758;2023-07-09T03:34:03;11.27;;;7.80;;
53273;SDS011;39163;52.696;6.758;2023-07-09T03:36:29;11.40;;;8.80;;
53273;SDS011;39163;52.696;6.758;2023-07-09T03:38:55;12.43;;;8.20;;
53273;SDS011;39163;52.696;6.758;2023-07-09T03:41:21;11.20;;;7.88;;
53273;SDS011;39163;52.696;6.758;2023-07-09T03:43:46;12.20;;;8.73;;
53273;SDS011;39163;52.696;6.758;2023-07-09T03:46:15;10.80;;;7.82;;
53273;SDS011;39163;52.696;6.758;2023-07-09T03:48:41;11.68;;;8.23;;
53273;SDS011;39163;52.696;6.758;2023-07-09T03:51:06;10.75;;;8.32;;
53273;SDS011;39163;52.696;6.758;2023-07-09T03:53:32;10.32;;;8.88;;
53273;SDS011;39163;52.696;6.758;2023-07-09T03:55:58;11.85;;;7.45;;
53273;SDS011;39163;52.696;6.758;2023-07-09T03:58:25;11.32;;;7.35;;
53273;SDS011;39163;52.696;6.758;2023-07-09T04:00:51;13.68;;;8.35;;
53273;SDS011;39163;52.696;6.758;2023-07-09T04:03:19;9.18;;;6.90;;
53273;SDS011;39163;52.696;6.758;2023-07-09T04:05:47;11.38;;;8.20;;
53273;SDS011;39163;52.696;6.758;2023-07-09T04:08:13;10.57;;;7.80;;
53273;SDS011;39163;52.696;6.758;2023-07-09T04:10:39;11.73;;;8.75;;
53273;SDS011;39163;52.696;6.758;2023-07-09T04:13:05;11.98;;;8.55;;
53273;SDS011;39163;52.696;6.758;2023-07-09T04:15:31;10.32;;;7.82;;
53273;SDS011;39163;52.696;6.758;2023-07-09T04:17:57;10.05;;;7.95;;
53273;SDS011;39163;52.696;6.758;2023-07-09T04:20:23;10.07;;;7.97;;
53273;SDS011;39163;52.696;6.758;2023-07-09T04:22:49;10.57;;;7.88;;
53273;SDS011;39163;52.696;6.758;2023-07-09T04:25:15;11.13;;;8.60;;
53273;SDS011;39163;52.696;6.758;2023-07-09T04:27:42;11.93;;;7.80;;
53273;SDS011;39163;52.696;6.758;2023-07-09T04:30:12;14.32;;;7.60;;
53273;SDS011;39163;52.696;6.758;2023-07-09T04:32:40;10.23;;;7.65;;
53273;SDS011;39163;52.696;6.758;2023-07-09T04:35:08;10.55;;;7.72;;
53273;SDS011;39163;52.696;6.758;2023-07-09T04:37:36;10.50;;;7.57;;
53273;SDS011;39163;52.696;6.758;2023-07-09T04:40:03;15.40;;;8.10;;
53273;SDS011;39163;52.696;6.758;2023-07-09T04:42:32;9.32;;;7.95;;
53273;SDS011;39163;52.696;6.758;2023-07-09T04:44:58;9.50;;;7.65;;
53273;SDS011;39163;52.696;6.758;2023-07-09T04:47:23;13.20;;;8.43;;
53273;SDS011;39163;52.696;6.758;2023-07-09T04:49:49;12.32;;;7.10;;
53273;SDS011;39163;52.696;6.758;2023-07-09T04:52:15;11.23;;;7.20;;
53273;SDS011;39163;52.696;6.758;2023-07-09T04:54:41;8.82;;;7.32;;
53273;SDS011;39163;52.696;6.758;2023-07-09T04:57:10;10.48;;;7.93;;
53273;SDS011;39163;52.696;6.758;2023-07-09T04:59:37;10.57;;;6.05;;
53273;SDS011;39163;52.696;6.758;2023-07-09T05:02:03;10.60;;;6.80;;
53273;SDS011;39163;52.696;6.758;2023-07-09T05:04:29;11.65;;;7.55;;
53273;SDS011;39163;52.696;6.758;2023-07-09T05:06:58;9.23;;;6.72;;
53273;SDS011;39163;52.696;6.758;2023-07-09T05:09:24;9.20;;;6.93;;
53273;SDS011;39163;52.696;6.758;2023-07-09T05:11:51;9.85;;;5.88;;
53273;SDS011;39163;52.696;6.758;2023-07-09T05:14:17;11.57;;;6.57;;
53273;SDS011;39163;52.696;6.758;2023-07-09T05:16:43;7.72;;;6.05;;
53273;SDS011;39163;52.696;6.758;2023-07-09T05:19:10;8.65;;;6.13;;
53273;SDS011;39163;52.696;6.758;2023-07-09T05:21:38;10.88;;;6.50;;
53273;SDS011;39163;52.696;6.758;2023-07-09T05:24:04;10.43;;;6.25;;
53273;SDS011;39163;52.696;6.758;2023-07-09T05:26:30;9.18;;;6.53;;
53273;SDS011;39163;52.696;6.758;2023-07-09T05:28:56;11.70;;;6.20;;
53273;SDS011;39163;52.696;6.758;2023-07-09T05:31:22;9.23;;;6.13;;
53273;SDS011;39163;52.696;6.758;2023-07-09T05:33:48;12.82;;;6.75;;
53273;SDS011;39163;52.696;6.758;2023-07-09T05:36:14;8.63;;;5.63;;
53273;SDS011;39163;52.696;6.758;2023-07-09T05:38:43;9.18;;;6.47;;
53273;SDS011;39163;52.696;6.758;2023-07-09T05:41:11;9.20;;;6.68;;
53273;SDS011;39163;52.696;6.758;2023-07-09T05:43:36;8.82;;;7.07;;
53273;SDS011;39163;52.696;6.758;2023-07-09T05:46:04;10.00;;;6.93;;
53273;SDS011;39163;52.696;6.758;2023-07-09T05:48:30;12.02;;;6.30;;
53273;SDS011;39163;52.696;6.758;2023-07-09T05:50:56;12.05;;;7.05;;
53273;SDS011;39163;52.696;6.758;2023-07-09T05:53:22;11.57;;;7.22;;
53273;SDS011;39163;52.696;6.758;2023-07-09T05:55:48;8.18;;;6.72;;
53273;SDS011;39163;52.696;6.758;2023-07-09T05:58:17;10.45;;;6.65;;
53273;SDS011;39163;52.696;6.758;2023-07-09T06:00:44;11.57;;;7.07;;
53273;SDS011;39163;52.696;6.758;2023-07-09T06:03:10;12.98;;;6.57;;
53273;SDS011;39163;52.696;6.758;2023-07-09T06:05:35;11.52;;;7.15;;
53273;SDS011;39163;52.696;6.758;2023-07-09T06:08:02;10.00;;;6.05;;
53273;SDS011;39163;52.696;6.758;2023-07-09T06:10:29;10.05;;;7.05;;
53273;SDS011;39163;52.696;6.758;2023-07-09T06:12:57;8.43;;;6.60;;
53273;SDS011;39163;52.696;6.758;2023-07-09T06:15:24;10.07;;;6.45;;
53273;SDS011;39163;52.696;6.758;2023-07-09T06:17:50;9.25;;;6.65;;
53273;SDS011;39163;52.696;6.758;2023-07-09T06:20:16;13.82;;;6.47;;
53273;SDS011;39163;52.696;6.758;2023-07-09T06:22:42;9.13;;;6.55;;
53273;SDS011;39163;52.696;6.758;2023-07-09T06:25:08;10.93;;;6.65;;
53273;SDS011;39163;52.696;6.758;2023-07-09T06:27:34;8.18;;;5.45;;
53273;SDS011;39163;52.696;6.758;2023-07-09T06:30:00;11.43;;;5.95;;
53273;SDS011;39163;52.696;6.758;2023-07-09T06:32:26;10.80;;;6.60;;
53273;SDS011;39163;52.696;6.758;2023-07-09T06:34:51;13.13;;;5.80;;
53273;SDS011;39163;52.696;6.758;2023-07-09T06:37:17;11.48;;;6.28;;
53273;SDS011;39163;52.696;6.758;2023-07-09T06:39:43;12.77;;;7.20;;
53273;SDS011;39163;52.696;6.758;2023-07-09T06:42:10;12.70;;;6.00;;
53273;SDS011;39163;52.696;6.758;2023-07-09T06:44:36;13.80;;;6.43;;
53273;SDS011;39163;52.696;6.758;2023-07-09T06:47:02;10.95;;;6.38;;
53273;SDS011;39163;52.696;6.758;2023-07-09T06:49:27;15.55;;;7.00;;
53273;SDS011;39163;52.696;6.758;2023-07-09T06:51:53;9.35;;;5.32;;
53273;SDS011;39163;52.696;6.758;2023-07-09T06:54:19;11.68;;;6.03;;
53273;SDS011;39163;52.696;6.758;2023-07-09T06:56:45;9.40;;;6.22;;
53273;SDS011;39163;52.696;6.758;2023-07-09T06:59:10;11.40;;;6.00;;
53273;SDS011;39163;52.696;6.758;2023-07-09T07:01:36;10.30;;;5.85;;
53273;SDS011;39163;52.696;6.758;2023-07-09T07:04:02;10.82;;;6.13;;
53273;SDS011;39163;52.696;6.758;2023-07-09T07:06:27;8.00;;;6.15;;
53273;SDS011;39163;52.696;6.758;2023-07-09T07:08:53;6.65;;;5.30;;
53273;SDS011;39163;52.696;6.758;2023-07-09T07:11:19;10.38;;;4.82;;
53273;SDS011;39163;52.696;6.758;2023-07-09T07:13:45;9.00;;;5.40;;
53273;SDS011;39163;52.696;6.758;2023-07-09T07:16:12;10.00;;;5.57;;
53273;SDS011;39163;52.696;6.758;2023-07-09T07:18:38;10.80;;;5.85;;
53273;SDS011;39163;52.696;6.758;2023-07-09T07:21:04;9.65;;;5.20;;
53273;SDS011;39163;52.696;6.758;2023-07-09T07:23:31;10.18;;;5.53;;
53273;SDS011;39163;52.696;6.758;2023-07-09T07:25:57;14.50;;;6.32;;
53273;SDS011;39163;52.696;6.758;2023-07-09T07:28:23;13.75;;;5.95;;
53273;SDS011;39163;52.696;6.758;2023-07-09T07:31:02;9.77;;;6.07;;
53273;SDS011;39163;52.696;6.758;2023-07-09T07:33:42;10.02;;;6.28;;
53273;SDS011;39163;52.696;6.758;2023-07-09T07:36:08;10.98;;;6.35;;
53273;SDS011;39163;52.696;6.758;2023-07-09T07:38:34;8.05;;;5.40;;
53273;SDS011;39163;52.696;6.758;2023-07-09T07:41:00;9.35;;;5.10;;
53273;SDS011;39163;52.696;6.758;2023-07-09T07:43:27;10.32;;;4.78;;
53273;SDS011;39163;52.696;6.758;2023-07-09T07:45:52;12.07;;;5.32;;
53273;SDS011;39163;52.696;6.758;2023-07-09T07:48:18;8.98;;;5.45;;
53273;SDS011;39163;52.696;6.758;2023-07-09T07:50:47;7.78;;;4.45;;
53273;SDS011;39163;52.696;6.758;2023-07-09T07:53:13;7.35;;;4.22;;
53273;SDS011;39163;52.696;6.758;2023-07-09T07:55:40;8.60;;;4.40;;
53273;SDS011;39163;52.696;6.758;2023-07-09T07:58:12;6.68;;;4.47;;
53273;SDS011;39163;52.696;6.758;2023-07-09T08:00:39;8.95;;;4.78;;
53273;SDS011;39163;52.696;6.758;2023-07-09T08:03:08;9.27;;;4.45;;
53273;SDS011;39163;52.696;6.758;2023-07-09T08:05:34;5.10;;;4.43;;
53273;SDS011;39163;52.696;6.758;2023-07-09T08:08:00;7.70;;;4.28;;
53273;SDS011;39163;52.696;6.758;2023-07-09T08:10:26;6.30;;;4.85;;
53273;SDS011;39163;52.696;6.758;2023-07-09T08:12:51;10.30;;;4.45;;
53273;SDS011;39163;52.696;6.758;2023-07-09T08:15:21;14.05;;;4.82;;
53273;SDS011;39163;52.696;6.758;2023-07-09T08:17:48;11.20;;;4.30;;
53273;SDS011;39163;52.696;6.758;2023-07-09T08:20:13;8.93;;;5.00;;
53273;SDS011;39163;52.696;6.758;2023-07-09T08:22:39;7.95;;;4.72;;
53273;SDS011;39163;52.696;6.758;2023-07-09T08:25:11;8.27;;;4.40;;
53273;SDS011;39163;52.696;6.758;2023-07-09T08:27:37;9.82;;;4.93;;
53273;SDS011;39163;52.696;6.758;2023-07-09T08:30:03;7.72;;;4.47;;
53273;SDS011;39163;52.696;6.758;2023-07-09T08:32:29;10.88;;;4.82;;
53273;SDS011;39163;52.696;6.758;2023-07-09T08:34:58;5.85;;;3.80;;
53273;SDS011;39163;52.696;6.758;2023-07-09T08:37:23;7.20;;;4.60;;
53273;SDS011;39163;52.696;6.758;2023-07-09T08:39:49;8.93;;;4.53;;
53273;SDS011;39163;52.696;6.758;2023-07-09T08:42:17;8.75;;;4.18;;
53273;SDS011;39163;52.696;6.758;2023-07-09T08:48:05;6.80;;;3.67;;
53273;SDS011;39163;52.696;6.758;2023-07-09T08:50:45;7.13;;;4.30;;
53273;SDS011;39163;52.696;6.758;2023-07-09T08:53:19;6.65;;;4.00;;
53273;SDS011;39163;52.696;6.758;2023-07-09T08:56:06;10.57;;;4.55;;
53273;SDS011;39163;52.696;6.758;2023-07-09T08:58:35;6.55;;;3.53;;
53273;SDS011;39163;52.696;6.758;2023-07-09T09:04:07;11.17;;;5.20;;
53273;SDS011;39163;52.696;6.758;2023-07-09T09:09:40;6.65;;;3.75;;
53273;SDS011;39163;52.696;6.758;2023-07-09T09:12:19;5.82;;;3.88;;
53273;SDS011;39163;52.696;6.758;2023-07-09T09:14:56;11.32;;;4.72;;
53273;SDS011;39163;52.696;6.758;2023-07-09T09:17:23;7.90;;;3.95;;
53273;SDS011;39163;52.696;6.758;2023-07-09T09:20:04;4.70;;;3.65;;
53273;SDS011;39163;52.696;6.758;2023-07-09T09:22:53;9.90;;;4.32;;
53273;SDS011;39163;52.696;6.758;2023-07-09T09:25:28;7.43;;;3.45;;
53273;SDS011;39163;52.696;6.758;2023-07-09T09:28:01;5.90;;;3.45;;
53273;SDS011;39163;52.696;6.758;2023-07-09T09:30:28;8.27;;;3.47;;
53273;SDS011;39163;52.696;6.758;2023-07-09T09:33:10;6.53;;;3.30;;
53273;SDS011;39163;52.696;6.758;2023-07-09T09:35:40;5.72;;;2.80;;
53273;SDS011;39163;52.696;6.758;2023-07-09T09:38:20;6.25;;;3.17;;
53273;SDS011;39163;52.696;6.758;2023-07-09T09:40:48;7.93;;;3.08;;
53273;SDS011;39163;52.696;6.758;2023-07-09T09:43:15;10.70;;;2.67;;
53273;SDS011;39163;52.696;6.758;2023-07-09T09:45:44;7.85;;;2.78;;
53273;SDS011;39163;52.696;6.758;2023-07-09T09:48:29;6.55;;;2.50;;
53273;SDS011;39163;52.696;6.758;2023-07-09T09:51:03;5.38;;;2.33;;
53273;SDS011;39163;52.696;6.758;2023-07-09T09:53:34;8.57;;;2.65;;
53273;SDS011;39163;52.696;6.758;2023-07-09T09:56:05;6.13;;;2.58;;
53273;SDS011;39163;52.696;6.758;2023-07-09T09:58:39;6.13;;;3.25;;
53273;SDS011;39163;52.696;6.758;2023-07-09T10:01:11;6.57;;;2.65;;
53273;SDS011;39163;52.696;6.758;2023-07-09T10:03:41;6.75;;;3.40;;
53273;SDS011;39163;52.696;6.758;2023-07-09T10:06:14;5.47;;;2.88;;
53273;SDS011;39163;52.696;6.758;2023-07-09T10:08:52;8.63;;;3.58;;
53273;SDS011;39163;52.696;6.758;2023-07-09T10:11:24;7.70;;;3.50;;
53273;SDS011;39163;52.696;6.758;2023-07-09T10:17:00;9.02;;;2.92;;
53273;SDS011;39163;52.696;6.758;2023-07-09T10:25:53;7.35;;;3.05;;
53273;SDS011;39163;52.696;6.758;2023-07-09T10:31:20;6.97;;;3.13;;
53273;SDS011;39163;52.696;6.758;2023-07-09T10:34:20;4.85;;;4.05;;
53273;SDS011;39163;52.696;6.758;2023-07-09T10:39:56;7.20;;;3.53;;
53273;SDS011;39163;52.696;6.758;2023-07-09T10:42:26;15.43;;;4.07;;
53273;SDS011;39163;52.696;6.758;2023-07-09T10:45:14;8.43;;;3.70;;
53273;SDS011;39163;52.696;6.758;2023-07-09T10:47:48;7.32;;;3.42;;
53273;SDS011;39163;52.696;6.758;2023-07-09T10:50:30;7.40;;;2.80;;
53273;SDS011;39163;52.696;6.758;2023-07-09T10:53:13;24.08;;;3.92;;
53273;SDS011;39163;52.696;6.758;2023-07-09T10:56:16;14.60;;;3.42;;
53273;SDS011;39163;52.696;6.758;2023-07-09T11:01:42;5.85;;;2.50;;
53273;SDS011;39163;52.696;6.758;2023-07-09T11:06:59;10.32;;;2.95;;
53273;SDS011;39163;52.696;6.758;2023-07-09T11:09:33;7.97;;;2.30;;
53273;SDS011;39163;52.696;6.758;2023-07-09T11:12:05;8.02;;;2.67;;
53273;SDS011;39163;52.696;6.758;2023-07-09T11:14:49;6.93;;;2.53;;
53273;SDS011;39163;52.696;6.758;2023-07-09T11:17:29;6.82;;;2.33;;
53273;SDS011;39163;52.696;6.758;2023-07-09T11:19:56;6.03;;;2.80;;
53273;SDS011;39163;52.696;6.758;2023-07-09T11:22:36;12.65;;;3.00;;
53273;SDS011;39163;52.696;6.758;2023-07-09T11:25:09;6.30;;;2.67;;
53273;SDS011;39163;52.696;6.758;2023-07-09T11:27:48;4.70;;;2.45;;
53273;SDS011;39163;52.696;6.758;2023-07-09T11:30:18;5.63;;;2.22;;
53273;SDS011;39163;52.696;6.758;2023-07-09T11:32:47;4.32;;;2.88;;
53273;SDS011;39163;52.696;6.758;2023-07-09T11:36:06;6.38;;;2.95;;
53273;SDS011;39163;52.696;6.758;2023-07-09T11:38:18;6.28;;;3.08;;
53273;SDS011;39163;52.696;6.758;2023-07-09T11:40:49;4.38;;;2.42;;
53273;SDS011;39163;52.696;6.758;2023-07-09T11:43:52;5.47;;;2.60;;
53273;SDS011;39163;52.696;6.758;2023-07-09T11:46:14;4.57;;;2.35;;
53273;SDS011;39163;52.696;6.758;2023-07-09T11:48:44;8.25;;;2.83;;
53273;SDS011;39163;52.696;6.758;2023-07-09T11:51:14;7.13;;;2.60;;
53273;SDS011;39163;52.696;6.758;2023-07-09T11:53:52;5.57;;;2.60;;
53273;SDS011;39163;52.696;6.758;2023-07-09T11:56:19;4.88;;;2.33;;
53273;SDS011;39163;52.696;6.758;2023-07-09T11:58:49;4.78;;;2.88;;
53273;SDS011;39163;52.696;6.758;2023-07-09T12:01:17;5.47;;;2.60;;
53273;SDS011;39163;52.696;6.758;2023-07-09T12:03:46;6.13;;;2.70;;
53273;SDS011;39163;52.696;6.758;2023-07-09T12:06:21;9.90;;;2.95;;
53273;SDS011;39163;52.696;6.758;2023-07-09T12:08:48;6.55;;;2.67;;
53273;SDS011;39163;52.696;6.758;2023-07-09T12:11:20;11.20;;;2.53;;
53273;SDS011;39163;52.696;6.758;2023-07-09T12:13:45;5.20;;;2.45;;
53273;SDS011;39163;52.696;6.758;2023-07-09T12:16:25;6.30;;;2.53;;
53273;SDS011;39163;52.696;6.758;2023-07-09T12:18:52;4.38;;;2.88;;
53273;SDS011;39163;52.696;6.758;2023-07-09T12:21:18;4.18;;;2.60;;
53273;SDS011;39163;52.696;6.758;2023-07-09T12:23:45;6.65;;;2.22;;
53273;SDS011;39163;52.696;6.758;2023-07-09T12:26:14;3.22;;;1.77;;
53273;SDS011;39163;52.696;6.758;2023-07-09T12:28:41;10.15;;;2.42;;
53273;SDS011;39163;52.696;6.758;2023-07-09T12:31:14;8.93;;;2.17;;
53273;SDS011;39163;52.696;6.758;2023-07-09T12:33:52;5.45;;;2.58;;
53273;SDS011;39163;52.696;6.758;2023-07-09T12:36:18;16.40;;;2.67;;
53273;SDS011;39163;52.696;6.758;2023-07-09T12:38:46;4.38;;;2.35;;
53273;SDS011;39163;52.696;6.758;2023-07-09T12:41:24;8.52;;;2.75;;
53273;SDS011;39163;52.696;6.758;2023-07-09T12:43:54;7.68;;;1.85;;
53273;SDS011;39163;52.696;6.758;2023-07-09T12:46:24;5.15;;;1.65;;
53273;SDS011;39163;52.696;6.758;2023-07-09T12:48:50;6.07;;;1.85;;
53273;SDS011;39163;52.696;6.758;2023-07-09T12:51:28;6.57;;;1.95;;
53273;SDS011;39163;52.696;6.758;2023-07-09T12:54:02;3.80;;;1.88;;
53273;SDS011;39163;52.696;6.758;2023-07-09T12:56:36;6.57;;;1.95;;
53273;SDS011;39163;52.696;6.758;2023-07-09T12:59:03;4.30;;;2.00;;
53273;SDS011;39163;52.696;6.758;2023-07-09T13:01:39;5.68;;;1.67;;
53273;SDS011;39163;52.696;6.758;2023-07-09T13:04:07;13.05;;;2.60;;
53273;SDS011;39163;52.696;6.758;2023-07-09T13:06:37;6.97;;;1.83;;
53273;SDS011;39163;52.696;6.758;2023-07-09T13:09:10;9.45;;;1.80;;
53273;SDS011;39163;52.696;6.758;2023-07-09T13:11:46;7.10;;;2.08;;
53273;SDS011;39163;52.696;6.758;2023-07-09T13:14:23;6.60;;;2.78;;
53273;SDS011;39163;52.696;6.758;2023-07-09T13:16:51;26.05;;;3.45;;
53273;SDS011;39163;52.696;6.758;2023-07-09T13:19:18;18.00;;;4.07;;
53273;SDS011;39163;52.696;6.758;2023-07-09T13:21:44;9.07;;;3.25;;
53273;SDS011;39163;52.696;6.758;2023-07-09T13:24:22;5.53;;;2.25;;
53273;SDS011;39163;52.696;6.758;2023-07-09T13:26:50;6.03;;;1.88;;
53273;SDS011;39163;52.696;6.758;2023-07-09T13:29:17;5.68;;;2.72;;
53273;SDS011;39163;52.696;6.758;2023-07-09T13:31:44;3.35;;;1.80;;
53273;SDS011;39163;52.696;6.758;2023-07-09T13:34:21;23.88;;;2.97;;
53273;SDS011;39163;52.696;6.758;2023-07-09T13:36:49;8.00;;;2.22;;
53273;SDS011;39163;52.696;6.758;2023-07-09T13:39:18;15.45;;;2.90;;
53273;SDS011;39163;52.696;6.758;2023-07-09T13:41:51;14.73;;;3.17;;
53273;SDS011;39163;52.696;6.758;2023-07-09T13:44:26;10.85;;;2.53;;
53273;SDS011;39163;52.696;6.758;2023-07-09T13:46:53;7.13;;;2.35;;
53273;SDS011;39163;52.696;6.758;2023-07-09T13:49:20;9.25;;;2.67;;
53273;SDS011;39163;52.696;6.758;2023-07-09T13:51:48;8.35;;;2.42;;
53273;SDS011;39163;52.696;6.758;2023-07-09T13:54:18;9.25;;;2.20;;
53273;SDS011;39163;52.696;6.758;2023-07-09T13:56:56;5.68;;;2.22;;
53273;SDS011;39163;52.696;6.758;2023-07-09T13:59:22;6.70;;;2.00;;
53273;SDS011;39163;52.696;6.758;2023-07-09T14:01:50;4.43;;;1.50;;
53273;SDS011;39163;52.696;6.758;2023-07-09T14:04:22;6.15;;;1.63;;
53273;SDS011;39163;52.696;6.758;2023-07-09T14:06:49;8.48;;;2.08;;
53273;SDS011;39163;52.696;6.758;2023-07-09T14:09:15;5.75;;;1.92;;
53273;SDS011;39163;52.696;6.758;2023-07-09T14:11:48;9.23;;;2.05;;
53273;SDS011;39163;52.696;6.758;2023-07-09T14:14:29;10.65;;;2.25;;
53273;SDS011;39163;52.696;6.758;2023-07-09T14:16:57;16.08;;;2.88;;
53273;SDS011;39163;52.696;6.758;2023-07-09T14:19:24;8.93;;;1.88;;
53273;SDS011;39163;52.696;6.758;2023-07-09T14:21:51;22.55;;;3.65;;
53273;SDS011;39163;52.696;6.758;2023-07-09T14:24:20;12.82;;;3.20;;
53273;SDS011;39163;52.696;6.758;2023-07-09T14:26:46;14.80;;;2.35;;
53273;SDS011;39163;52.696;6.758;2023-07-09T14:29:20;9.15;;;2.13;;
53273;SDS011;39163;52.696;6.758;2023-07-09T14:31:47;7.15;;;2.50;;
53273;SDS011;39163;52.696;6.758;2023-07-09T14:34:23;6.10;;;2.28;;
53273;SDS011;39163;52.696;6.758;2023-07-09T14:36:53;7.38;;;2.10;;
53273;SDS011;39163;52.696;6.758;2023-07-09T14:39:21;7.13;;;2.40;;
53273;SDS011;39163;52.696;6.758;2023-07-09T14:41:53;5.75;;;2.42;;
53273;SDS011;39163;52.696;6.758;2023-07-09T14:44:27;5.43;;;2.03;;
53273;SDS011;39163;52.696;6.758;2023-07-09T14:46:58;6.60;;;2.35;;
53273;SDS011;39163;52.696;6.758;2023-07-09T14:49:26;7.50;;;2.75;;
53273;SDS011;39163;52.696;6.758;2023-07-09T14:51:52;9.80;;;3.03;;
53273;SDS011;39163;52.696;6.758;2023-07-09T14:54:28;13.68;;;3.40;;
53273;SDS011;39163;52.696;6.758;2023-07-09T14:59:48;10.35;;;3.50;;
53273;SDS011;39163;52.696;6.758;2023-07-09T15:05:09;6.65;;;2.97;;
53273;SDS011;39163;52.696;6.758;2023-07-09T15:07:44;7.18;;;2.47;;
53273;SDS011;39163;52.696;6.758;2023-07-09T15:10:13;9.60;;;2.30;;
53273;SDS011;39163;52.696;6.758;2023-07-09T15:12:45;6.95;;;3.20;;
53273;SDS011;39163;52.696;6.758;2023-07-09T15:17:53;5.95;;;2.47;;
53273;SDS011;39163;52.696;6.758;2023-07-09T15:20:25;8.90;;;3.15;;
53273;SDS011;39163;52.696;6.758;2023-07-09T15:22:54;8.35;;;2.78;;
53273;SDS011;39163;52.696;6.758;2023-07-09T15:25:23;7.45;;;2.58;;
53273;SDS011;39163;52.696;6.758;2023-07-09T15:27:52;6.80;;;2.70;;
53273;SDS011;39163;52.696;6.758;2023-07-09T15:30:22;8.40;;;3.13;;
53273;SDS011;39163;52.696;6.758;2023-07-09T15:32:49;6.07;;;3.30;;
53273;SDS011;39163;52.696;6.758;2023-07-09T15:35:22;7.20;;;2.42;;
53273;SDS011;39163;52.696;6.758;2023-07-09T15:40:22;7.15;;;2.72;;
53273;SDS011;39163;52.696;6.758;2023-07-09T15:42:52;6.97;;;2.60;;
53273;SDS011;39163;52.696;6.758;2023-07-09T15:45:23;4.88;;;2.28;;
53273;SDS011;39163;52.696;6.758;2023-07-09T15:47:50;5.00;;;3.15;;
53273;SDS011;39163;52.696;6.758;2023-07-09T15:50:18;7.38;;;3.05;;